首页
METAR-TAF:

METAR-TAF

机场 :

加兹温, 伊朗

纬度: 36-15N, 经度: 050-00E, 海拔: 1278米

当前天气观测

该预报发布于48分钟前的08:00 UTC
风速6节,风向东转东南
温度 1°C
湿度 100%
气压 1019 hPa
能見度: 3000
少量云层高于3500英尺
阴天层高于9000英尺
小雪

METAR: OIIK 180800Z 11006KT 3000 -SN FEW035 OVC090 01/01 Q1019

时间: 12:18 (08:48 UTC)


TAF: 丢失

超过4000个机场的气象观测和天气预报(METAR&TAF报告)。

可查询的气象台以黄色和红色小点在地图上表示。

将鼠标移到小点上方,可查看气象台名称。

然后点击查看天气观测和预报。

如需切换地图:点击带黑十字的绿色按钮放大地图;点击带横线的绿色按钮缩小地图;或者点击绿色箭头查看邻近地区的地图。


METAR-TAF: